Time;durP1;ratioP1;P1;durP2;ratioP2;P2;SDS_P1;SDS_P2;PMS_P1;PMS_P2;Temp;Humidity;BMP_temperature;BMP_pressure;BME280_temperature;BME280_humidity;BME280_pressure;Samples;Min_cycle;Max_cycle;Signal;HPM_P1;HPM_P2
2022/01/13 00:01:30;;;;;;;4.03;2.67;;;0.20;84.10;-0.90;100476.00;;;;5116323;28;20572;-78
2022/01/13 00:03:58;;;;;;;2.50;2.40;;;0.20;84.10;-0.90;100461.00;;;;5116168;28;20281;-77
2022/01/13 00:06:25;;;;;;;2.00;1.90;;;0.10;84.60;-0.70;100465.00;;;;5116132;28;20738;-77
2022/01/13 00:08:51;;;;;;;2.30;1.87;;;0.20;84.60;-0.80;100470.00;;;;5116528;28;20551;-77
2022/01/13 00:11:18;;;;;;;1.77;1.67;;;0.30;84.00;-0.90;100473.00;;;;5116085;28;20308;-76
2022/01/13 00:13:49;;;;;;;3.33;3.03;;;0.10;84.50;-0.90;100461.00;;;;5116182;28;20190;-78
2022/01/13 00:16:38;;;;;;;1.70;1.43;;;0.10;84.20;-0.90;100482.00;;;;5118250;28;20201;-76
2022/01/13 00:19:19;;;;;;;2.27;1.97;;;0.10;84.30;-0.80;100473.00;;;;5128229;28;20225;-77
2022/01/13 00:21:52;;;;;;;2.47;2.27;;;0.20;84.60;-0.80;100476.00;;;;5128999;28;20246;-75
2022/01/13 00:24:18;;;;;;;3.13;1.97;;;0.20;84.30;-0.70;100490.00;;;;5117059;28;20198;-76
2022/01/13 00:26:46;;;;;;;3.67;2.30;;;0.30;84.20;-0.70;100504.00;;;;5099103;28;20620;-77
2022/01/13 00:29:19;;;;;;;2.03;1.93;;;0.30;84.20;-0.60;100490.00;;;;5116407;28;20252;-77
2022/01/13 00:31:48;;;;;;;2.87;2.63;;;0.30;84.40;-0.70;100507.00;;;;5120491;28;20224;-77
2022/01/13 00:34:15;;;;;;;2.57;1.90;;;0.40;84.20;-0.60;100500.00;;;;5127999;28;20429;-78
2022/01/13 00:36:42;;;;;;;1.90;1.80;;;0.30;84.50;-0.60;100501.00;;;;5126563;28;20221;-77
2022/01/13 00:39:11;;;;;;;3.37;1.97;;;0.50;84.80;-0.50;100504.00;;;;5116678;28;20292;-77
2022/01/13 00:41:38;;;;;;;2.63;2.43;;;0.40;84.90;-0.40;100499.00;;;;5097662;28;20289;-77
2022/01/13 00:44:07;;;;;;;3.83;2.17;;;0.50;84.90;-0.50;100520.00;;;;5115397;28;20274;-76
2022/01/13 00:46:42;;;;;;;1.17;1.17;;;0.50;84.60;-0.60;100513.00;;;;5115463;28;20692;-76
2022/01/13 00:49:10;;;;;;;1.70;1.60;;;0.50;84.00;-0.80;100521.00;;;;5115518;28;20190;-76
2022/01/13 00:51:38;;;;;;;4.20;3.60;;;0.40;84.30;-0.60;100526.00;;;;5097200;28;20892;-77
2022/01/13 00:54:06;;;;;;;2.33;2.13;;;0.40;85.00;-0.40;100517.00;;;;5115440;28;20352;-77
2022/01/13 00:56:34;;;;;;;7.23;3.17;;;0.50;85.30;-0.40;100528.00;;;;5115333;28;20214;-76
2022/01/13 00:59:01;;;;;;;1.90;1.73;;;0.50;84.80;-0.40;100521.00;;;;5115139;28;20282;-76
2022/01/13 01:01:27;;;;;;;2.07;1.97;;;0.60;84.80;-0.30;100519.00;;;;5115276;28;20533;-76
2022/01/13 01:03:54;;;;;;;3.20;1.97;;;0.60;85.00;-0.40;100516.00;;;;5097284;28;20264;-77
2022/01/13 01:06:21;;;;;;;2.40;1.70;;;0.60;84.80;-0.40;100534.00;;;;5114981;28;20198;-75
2022/01/13 01:08:48;;;;;;;2.77;2.60;;;0.60;84.60;-0.40;100519.00;;;;5115219;28;20686;-77
2022/01/13 01:11:14;;;;;;;2.77;2.47;;;0.60;84.90;-0.30;100530.00;;;;5114955;28;20217;-75
2022/01/13 01:13:41;;;;;;;7.93;2.80;;;0.60;84.90;-0.40;100526.00;;;;5115104;28;20285;-76
2022/01/13 01:16:10;;;;;;;2.87;2.17;;;0.60;84.50;-0.40;100530.00;;;;5115054;28;20293;-77
2022/01/13 01:18:52;;;;;;;2.50;2.10;;;0.60;84.70;-0.40;100524.00;;;;5096778;28;20229;-77
2022/01/13 01:27:01;;;;;;;2.83;2.63;;;0.60;84.30;-0.60;100538.00;;;;5114501;28;20281;-76
2022/01/13 01:29:34;;;;;;;3.43;2.73;;;0.60;84.80;-0.40;100533.00;;;;5114778;28;20518;-76
2022/01/13 01:32:01;;;;;;;1.93;1.83;;;0.60;85.30;-0.20;100536.00;;;;5114707;28;20241;-77
2022/01/13 01:34:44;;;;;;;1.83;1.73;;;0.80;85.10;-0.10;100534.00;;;;5114646;28;20668;-77
2022/01/13 01:37:15;;;;;;;2.07;1.97;;;0.80;84.20;-0.20;100537.00;;;;5114607;28;20193;-76
2022/01/13 01:39:43;;;;;;;1.97;1.87;;;0.80;83.30;-0.20;100513.00;;;;5114791;28;20777;-77
2022/01/13 01:42:10;;;;;;;2.60;2.37;;;0.80;83.60;-0.10;100549.00;;;;5114662;28;20233;-77
2022/01/13 01:44:43;;;;;;;2.23;2.03;;;0.80;84.80;-0.10;100528.00;;;;5096419;28;20279;-76
2022/01/13 01:47:15;;;;;;;3.27;2.50;;;0.90;83.80;0.00;100550.00;;;;5096554;28;20194;-76
2022/01/13 01:49:47;;;;;;;2.80;2.60;;;0.90;83.60;-0.10;100534.00;;;;5114490;28;20202;-77
2022/01/13 01:52:17;;;;;;;2.80;2.60;;;0.90;83.60;-0.10;100535.00;;;;5114273;28;20656;-76
2022/01/13 01:54:45;;;;;;;2.03;1.87;;;0.90;83.50;0.00;100541.00;;;;5113220;28;20194;-75
2022/01/13 01:57:16;;;;;;;3.20;2.90;;;0.90;83.60;0.00;100534.00;;;;5114310;28;20201;-75
2022/01/13 01:59:44;;;;;;;2.37;2.17;;;0.90;83.50;-0.10;100526.00;;;;5114447;28;20218;-76
2022/01/13 02:02:15;;;;;;;3.17;2.27;;;0.90;83.30;0.00;100528.00;;;;5114367;28;20202;-77
2022/01/13 02:04:42;;;;;;;3.83;2.73;;;0.90;83.60;0.00;100521.00;;;;5114142;28;20575;-75
2022/01/13 02:07:10;;;;;;;3.97;2.43;;;0.90;83.30;0.00;100531.00;;;;5114264;28;20526;-75
2022/01/13 02:09:41;;;;;;;2.67;2.47;;;1.00;83.10;-0.20;100509.00;;;;5096308;28;20227;-76
2022/01/13 02:12:15;;;;;;;2.50;2.30;;;0.90;82.70;-0.10;100521.00;;;;5114305;28;20272;-77
2022/01/13 02:14:56;;;;;;;2.90;2.70;;;0.90;83.00;0.00;100519.00;;;;5096471;28;20206;-76
2022/01/13 02:17:25;;;;;;;2.00;1.83;;;0.90;83.20;-0.10;100506.00;;;;5114132;28;20300;-77
2022/01/13 02:19:55;;;;;;;2.80;2.17;;;0.90;82.90;-0.10;100505.00;;;;5114364;28;20247;-77
2022/01/13 02:22:23;;;;;;;2.70;2.50;;;0.90;83.10;0.00;100504.00;;;;5096197;28;20197;-76
2022/01/13 02:24:51;;;;;;;3.50;3.07;;;0.90;82.60;0.00;100509.00;;;;5113955;28;20236;-76
2022/01/13 02:27:18;;;;;;;2.73;2.17;;;1.00;82.30;0.00;100500.00;;;;5113910;28;20200;-76
2022/01/13 02:29:45;;;;;;;1.93;1.83;;;1.00;82.10;-0.20;100488.00;;;;5096102;28;20194;-76
2022/01/13 02:32:13;;;;;;;3.20;2.83;;;0.90;81.50;-0.10;100498.00;;;;5113906;28;20252;-77
2022/01/13 02:34:39;;;;;;;5.57;2.00;;;0.90;81.70;-0.10;100497.00;;;;5114053;28;20205;-76
2022/01/13 02:37:06;;;;;;;1.93;1.83;;;0.90;81.50;-0.10;100491.00;;;;5095960;28;20205;-76
2022/01/13 02:39:33;;;;;;;2.57;2.37;;;0.80;81.40;-0.10;100483.00;;;;5114025;28;20229;-76
2022/01/13 02:42:03;;;;;;;2.57;2.37;;;0.90;81.00;-0.10;100478.00;;;;5096042;28;20200;-76
2022/01/13 02:44:31;;;;;;;1.77;1.67;;;0.90;81.20;-0.20;100460.00;;;;5113840;28;20699;-76
2022/01/13 02:47:10;;;;;;;2.40;2.30;;;0.80;81.30;-0.10;100484.00;;;;5113822;28;20509;-76
2022/01/13 02:49:36;;;;;;;3.33;1.80;;;0.90;81.60;0.00;100476.00;;;;5113882;28;20243;-76
2022/01/13 02:52:04;;;;;;;3.30;2.20;;;0.90;82.50;-0.10;100477.00;;;;5113812;28;20814;-76
2022/01/13 02:54:32;;;;;;;2.73;2.50;;;0.90;81.40;0.00;100475.00;;;;5095975;28;20289;-76
2022/01/13 02:56:59;;;;;;;2.00;1.90;;;0.90;81.50;0.00;100471.00;;;;5112668;28;20350;-74
2022/01/13 02:59:27;;;;;;;2.50;2.40;;;0.90;82.20;0.00;100474.00;;;;5113613;28;20696;-75
2022/01/13 03:01:56;;;;;;;5.20;2.37;;;1.00;81.00;0.00;100465.00;;;;5113701;28;20229;-76
2022/01/13 03:04:24;;;;;;;2.83;2.03;;;0.90;80.50;-0.10;100468.00;;;;5095776;28;20242;-76
2022/01/13 03:06:50;;;;;;;2.17;2.03;;;0.90;80.60;-0.10;100480.00;;;;5098998;28;20700;-75
2022/01/13 03:09:21;;;;;;;2.53;2.33;;;0.90;81.10;0.00;100477.00;;;;5117110;28;20218;-76
2022/01/13 03:11:51;;;;;;;2.17;2.07;;;0.90;81.30;0.00;100472.00;;;;5116950;28;20256;-76
2022/01/13 03:14:19;;;;;;;1.37;1.37;;;0.90;81.00;-0.10;100480.00;;;;5117082;28;20226;-76
2022/01/13 03:16:48;;;;;;;2.53;2.10;;;0.90;80.50;-0.10;100475.00;;;;5116942;28;20209;-77
2022/01/13 03:19:15;;;;;;;4.10;3.77;;;0.90;80.80;0.00;100469.00;;;;5099017;28;20304;-75
2022/01/13 03:21:41;;;;;;;2.63;2.43;;;0.90;81.00;-0.10;100481.00;;;;5116879;28;20285;-75
2022/01/13 03:24:11;;;;;;;2.47;2.27;;;0.90;80.80;-0.20;100467.00;;;;5116797;28;20222;-77
2022/01/13 03:26:38;;;;;;;2.80;2.30;;;0.80;80.10;-0.20;100471.00;;;;5099050;28;20504;-77
2022/01/13 03:29:16;;;;;;;9.90;3.17;;;0.80;80.60;-0.20;100456.00;;;;5116910;28;20214;-77
2022/01/13 03:31:44;;;;;;;1.93;1.83;;;0.80;81.00;-0.30;100458.00;;;;5116671;28;20217;-76
2022/01/13 03:34:13;;;;;;;2.47;2.27;;;0.80;80.90;-0.20;100450.00;;;;5098693;28;20229;-77
2022/01/13 03:36:42;;;;;;;2.87;2.67;;;0.80;81.20;-0.10;100455.00;;;;5116574;28;20326;-77
2022/01/13 03:39:13;;;;;;;3.57;3.37;;;0.80;81.10;-0.20;100459.00;;;;5116546;28;20217;-76
2022/01/13 03:41:41;;;;;;;3.10;2.53;;;0.80;81.00;-0.20;100446.00;;;;5116517;28;20218;-76
2022/01/13 03:44:18;;;;;;;3.50;2.27;;;0.80;81.30;-0.20;100445.00;;;;5098457;28;20230;-76
2022/01/13 03:46:44;;;;;;;3.27;3.07;;;0.70;81.00;-0.40;100445.00;;;;5116381;28;20190;-76
2022/01/13 03:49:11;;;;;;;2.37;2.27;;;0.70;80.80;-0.50;100446.00;;;;5116244;28;20668;-76
2022/01/13 03:52:41;;;;;;;1.50;1.40;;;0.60;81.30;-0.40;100452.00;;;;5116191;28;20220;-76
2022/01/13 03:56:19;;;;;;;1.63;1.53;;;0.60;81.90;-0.50;100459.00;;;;5116311;28;20202;-76
2022/01/13 03:59:45;;;;;;;2.37;2.27;;;0.50;82.30;-0.40;100453.00;;;;5098131;28;20650;-77
2022/01/13 04:02:13;;;;;;;1.50;1.40;;;0.50;82.90;-0.40;100458.00;;;;5098293;28;20227;-76
2022/01/13 04:04:44;;;;;;;3.40;2.43;;;0.60;82.80;-0.40;100463.00;;;;5098046;28;20665;-77
2022/01/13 04:07:19;;;;;;;1.90;1.80;;;0.60;82.80;-0.50;100461.00;;;;5116135;28;20278;-75
2022/01/13 04:10:57;;;;;;;6.73;3.23;;;0.60;82.50;-0.50;100459.00;;;;5098205;28;20301;-76
2022/01/13 04:13:44;;;;;;;5.60;3.07;;;0.50;82.60;-0.40;100463.00;;;;5120056;28;20284;-75
2022/01/13 04:16:11;;;;;;;4.90;3.43;;;0.60;82.90;-0.30;100434.00;;;;5126686;28;20193;-76
2022/01/13 04:18:38;;;;;;;2.43;2.23;;;0.60;82.90;-0.30;100469.00;;;;5109049;28;20229;-76
2022/01/13 04:21:06;;;;;;;6.87;3.97;;;0.60;82.60;-0.30;100445.00;;;;5099982;28;20226;-77
2022/01/13 04:23:35;;;;;;;3.50;2.23;;;0.60;82.50;-0.40;100460.00;;;;5116963;28;20226;-76
2022/01/13 04:26:05;;;;;;;3.23;2.17;;;0.60;82.50;-0.30;100455.00;;;;5102178;28;20233;-77
2022/01/13 04:28:32;;;;;;;1.47;1.30;;;0.60;83.00;-0.40;100446.00;;;;5109296;28;20244;-77
2022/01/13 04:31:01;;;;;;;3.20;2.83;;;0.60;82.90;-0.40;100453.00;;;;5128173;28;20225;-76
2022/01/13 04:33:28;;;;;;;3.50;3.23;;;0.60;82.70;-0.40;100443.00;;;;5120667;28;20194;-77
2022/01/13 04:35:55;;;;;;;2.30;2.20;;;0.60;82.80;-0.40;100461.00;;;;5116368;28;20246;-77
2022/01/13 04:38:24;;;;;;;3.00;2.80;;;0.60;83.00;-0.40;100461.00;;;;5098273;28;20622;-77
2022/01/13 04:40:55;;;;;;;5.00;2.87;;;0.60;83.00;-0.40;100463.00;;;;5116143;28;20197;-77
2022/01/13 04:43:23;;;;;;;2.60;2.40;;;0.60;82.90;-0.40;100470.00;;;;5097783;28;20661;-76
2022/01/13 04:45:51;;;;;;;3.03;2.83;;;0.60;82.90;-0.40;100464.00;;;;5097433;28;20293;-77
2022/01/13 04:48:18;;;;;;;1.87;1.77;;;0.60;83.00;-0.40;100445.00;;;;5115386;28;20262;-77
2022/01/13 04:50:45;;;;;;;2.13;2.00;;;0.50;83.00;-0.50;100464.00;;;;5115244;28;20251;-77
2022/01/13 04:53:14;;;;;;;3.13;2.83;;;0.60;83.10;-0.50;100470.00;;;;5115256;28;20520;-77
2022/01/13 04:55:49;;;;;;;3.77;2.93;;;0.50;83.70;-0.50;100474.00;;;;5115359;28;20272;-75
2022/01/13 04:58:17;;;;;;;4.33;3.80;;;0.50;82.80;-0.40;100481.00;;;;5115076;28;20494;-77
2022/01/13 05:00:44;;;;;;;2.07;1.97;;;0.50;83.20;-0.50;100478.00;;;;5115186;28;20641;-76
2022/01/13 05:03:11;;;;;;;3.33;2.77;;;0.50;83.40;-0.50;100487.00;;;;5115012;28;20276;-75
2022/01/13 05:05:38;;;;;;;4.23;3.40;;;0.50;83.60;-0.50;100486.00;;;;5115120;28;20198;-76
2022/01/13 05:08:05;;;;;;;3.20;3.00;;;0.50;83.90;-0.50;100491.00;;;;5097196;28;20700;-77
2022/01/13 05:10:32;;;;;;;3.67;2.47;;;0.50;83.90;-0.60;100492.00;;;;5115032;28;20236;-76
2022/01/13 05:12:59;;;;;;;1.67;1.63;;;0.40;83.90;-0.50;100495.00;;;;5115017;28;20554;-76
2022/01/13 05:15:27;;;;;;;4.97;2.90;;;0.40;84.20;-0.50;100495.00;;;;5114999;28;20194;-77
2022/01/13 05:18:08;;;;;;;3.17;2.67;;;0.40;84.50;-0.50;100484.00;;;;5114882;28;20233;-77
2022/01/13 05:20:45;;;;;;;2.07;1.97;;;0.50;84.80;-0.50;100482.00;;;;5114834;28;20279;-77
2022/01/13 05:23:12;;;;;;;3.40;2.50;;;0.50;84.80;-0.40;100477.00;;;;5114792;28;20224;-76
2022/01/13 05:25:42;;;;;;;1.53;1.43;;;0.50;85.00;-0.50;100477.00;;;;5114974;28;20571;-75
2022/01/13 05:28:09;;;;;;;3.20;3.00;;;0.60;84.40;-0.40;100484.00;;;;5114781;28;20206;-77
2022/01/13 05:30:36;;;;;;;3.90;2.57;;;0.50;84.30;-0.30;100480.00;;;;5114871;28;20216;-76
2022/01/13 05:33:03;;;;;;;2.77;2.57;;;0.60;84.20;-0.40;100479.00;;;;5114868;28;20198;-77
2022/01/13 05:35:34;;;;;;;4.20;2.57;;;0.60;84.00;-0.30;100486.00;;;;5114742;28;20202;-77
2022/01/13 05:38:01;;;;;;;2.33;2.23;;;0.60;84.00;-0.40;100485.00;;;;5114718;28;20510;-76
2022/01/13 05:40:30;;;;;;;2.67;2.47;;;0.60;83.90;-0.30;100488.00;;;;5114575;28;20286;-77
2022/01/13 05:42:57;;;;;;;5.00;2.50;;;0.60;84.20;-0.30;100494.00;;;;5114511;28;20593;-77
2022/01/13 05:45:29;;;;;;;4.20;2.93;;;0.60;84.10;-0.30;100505.00;;;;5114600;28;20296;-77
2022/01/13 05:47:58;;;;;;;2.93;2.73;;;0.60;84.10;-0.30;100500.00;;;;5114581;28;20350;-77
2022/01/13 05:50:27;;;;;;;2.10;1.90;;;0.70;84.40;-0.40;100506.00;;;;5096470;28;20324;-77
2022/01/13 05:52:54;;;;;;;2.33;2.17;;;0.70;84.30;-0.20;100502.00;;;;5114288;28;20194;-77
2022/01/13 05:55:22;;;;;;;3.50;2.40;;;0.70;84.40;-0.20;100503.00;;;;5114568;28;20217;-77
2022/01/13 05:57:51;;;;;;;5.20;1.97;;;0.70;84.00;-0.20;100502.00;;;;5114441;28;20190;-77
2022/01/13 06:00:21;;;;;;;6.07;3.10;;;0.70;83.90;-0.20;100502.00;;;;5114243;28;20293;-77
2022/01/13 06:02:48;;;;;;;2.97;2.67;;;0.80;83.90;-0.20;100502.00;;;;5096266;28;20211;-77
2022/01/13 06:05:19;;;;;;;3.20;2.90;;;0.80;83.60;-0.20;100495.00;;;;5114256;28;20669;-76
2022/01/13 06:07:45;;;;;;;1.37;1.33;;;0.80;83.60;-0.10;100501.00;;;;5114346;28;20194;-77
2022/01/13 06:10:18;;;;;;;3.53;3.33;;;0.80;84.30;-0.10;100495.00;;;;5096210;28;20240;-78
2022/01/13 06:12:46;;;;;;;2.20;2.10;;;0.80;83.40;-0.20;100500.00;;;;5114233;28;20205;-77
2022/01/13 06:15:15;;;;;;;4.23;2.80;;;0.70;83.50;-0.20;100501.00;;;;5096260;28;20681;-78
2022/01/13 06:17:43;;;;;;;2.93;2.73;;;0.80;83.60;-0.20;100489.00;;;;5114220;28;20205;-77
2022/01/13 06:20:12;;;;;;;10.30;2.37;;;0.70;83.80;-0.20;100496.00;;;;5096175;28;20234;-77
2022/01/13 06:22:44;;;;;;;2.17;2.07;;;0.70;84.00;-0.10;100498.00;;;;5113931;28;20189;-77
2022/01/13 06:25:13;;;;;;;3.77;2.87;;;0.90;83.90;-0.20;100488.00;;;;5114090;28;20264;-77
2022/01/13 06:27:40;;;;;;;20.67;3.20;;;0.80;83.70;-0.20;100465.00;;;;5113995;28;20335;-77
2022/01/13 06:30:11;;;;;;;4.00;3.33;;;0.70;84.20;-0.20;100443.00;;;;5114006;28;20218;-77
2022/01/13 06:32:38;;;;;;;3.20;2.67;;;0.80;84.60;-0.20;100481.00;;;;5113974;28;20206;-78
2022/01/13 06:35:09;;;;;;;3.43;3.03;;;0.70;84.60;-0.30;100488.00;;;;5113950;28;20190;-77
2022/01/13 06:37:36;;;;;;;5.70;2.33;;;0.80;84.90;-0.20;100493.00;;;;5113770;28;20300;-77
2022/01/13 06:40:05;;;;;;;5.40;2.83;;;0.70;85.10;-0.20;100492.00;;;;5114540;28;20221;-77
2022/01/13 06:42:31;;;;;;;2.30;2.10;;;0.70;85.10;-0.10;100497.00;;;;5117343;28;20195;-78
2022/01/13 06:44:58;;;;;;;2.43;2.23;;;0.80;85.10;-0.20;100502.00;;;;5117331;28;20641;-77
2022/01/13 06:47:24;;;;;;;2.33;2.13;;;0.80;84.80;-0.10;100507.00;;;;5117307;28;20198;-76
2022/01/13 06:49:51;;;;;;;4.27;2.70;;;0.80;85.60;-0.20;100503.00;;;;5099174;28;20234;-78
2022/01/13 06:52:18;;;;;;;2.73;2.53;;;0.80;84.80;-0.10;100510.00;;;;5117174;28;20292;-77
2022/01/13 06:54:45;;;;;;;1.80;1.70;;;0.80;84.50;-0.20;100506.00;;;;5117240;28;20277;-77
2022/01/13 06:57:11;;;;;;;4.47;4.07;;;0.80;84.20;-0.10;100514.00;;;;5117147;28;20300;-77
2022/01/13 06:59:38;;;;;;;5.73;2.77;;;0.80;84.40;-0.10;100521.00;;;;5117098;28;20359;-77
2022/01/13 07:02:04;;;;;;;2.50;2.40;;;0.80;84.40;-0.10;100527.00;;;;5117235;28;20201;-75
2022/01/13 07:04:31;;;;;;;2.57;2.37;;;0.80;84.40;-0.10;100527.00;;;;5117179;28;20198;-77
2022/01/13 07:06:58;;;;;;;4.63;1.77;;;0.90;84.70;-0.10;100527.00;;;;5116961;28;20206;-77
2022/01/13 07:09:27;;;;;;;2.20;1.97;;;0.80;85.00;-0.10;100536.00;;;;5116910;28;20299;-77
2022/01/13 07:11:54;;;;;;;2.07;1.97;;;0.80;84.30;-0.10;100548.00;;;;5117149;28;20202;-77
2022/01/13 07:14:20;;;;;;;2.10;2.00;;;0.90;84.60;0.00;100544.00;;;;5116996;28;20284;-77
2022/01/13 07:16:47;;;;;;;1.77;1.67;;;0.90;84.50;0.00;100545.00;;;;5117024;28;20305;-76
2022/01/13 07:19:15;;;;;;;3.57;3.23;;;0.90;84.40;0.10;100558.00;;;;5117046;28;20278;-77
2022/01/13 07:21:45;;;;;;;3.50;1.97;;;0.90;84.40;-0.10;100557.00;;;;5116859;28;20266;-77
2022/01/13 07:24:12;;;;;;;1.50;1.40;;;0.90;83.70;-0.10;100545.00;;;;5116879;28;20281;-77
2022/01/13 07:26:40;;;;;;;2.63;2.43;;;0.90;83.80;-0.20;100555.00;;;;5116816;28;20277;-77
2022/01/13 07:29:07;;;;;;;2.93;2.63;;;0.90;83.80;-0.10;100555.00;;;;5116823;28;20677;-78
2022/01/13 07:31:34;;;;;;;2.90;2.70;;;0.90;84.30;0.00;100517.00;;;;5116681;28;20201;-77
2022/01/13 07:34:01;;;;;;;1.77;1.67;;;0.90;84.30;0.00;100559.00;;;;5118639;28;20493;-79
2022/01/13 07:36:27;;;;;;;4.43;4.03;;;0.90;84.40;-0.10;100555.00;;;;5119665;28;20658;-78
2022/01/13 07:38:54;;;;;;;4.77;2.20;;;1.00;83.90;0.00;100564.00;;;;5127945;28;20273;-78
2022/01/13 07:41:21;;;;;;;2.40;2.20;;;0.90;84.40;0.00;100561.00;;;;5106203;28;20235;-78
2022/01/13 07:43:53;;;;;;;2.43;2.27;;;1.00;84.20;0.10;100558.00;;;;5116691;28;20278;-77
2022/01/13 07:46:20;;;;;;;3.30;2.80;;;1.00;84.00;0.00;100563.00;;;;5116453;28;20248;-77
2022/01/13 07:48:47;;;;;;;3.97;3.67;;;1.00;83.70;0.10;100562.00;;;;5116399;28;20315;-77
2022/01/13 07:51:14;;;;;;;4.33;2.23;;;1.00;84.10;0.10;100559.00;;;;5116262;28;20232;-77
2022/01/13 07:53:40;;;;;;;6.23;2.63;;;1.10;83.90;0.20;100556.00;;;;5116474;28;20219;-84
2022/01/13 07:56:09;;;;;;;2.27;2.13;;;1.10;84.70;0.20;100563.00;;;;5116428;28;20532;-86
2022/01/13 07:58:37;;;;;;;2.07;1.97;;;1.10;83.70;0.30;100560.00;;;;5116295;28;20201;-86
2022/01/13 08:01:05;;;;;;;2.20;2.03;;;1.20;83.80;0.30;100556.00;;;;5116204;28;20225;-81
2022/01/13 08:03:33;;;;;;;2.23;2.13;;;1.20;83.80;0.40;100561.00;;;;5116305;28;20202;-85
2022/01/13 08:06:01;;;;;;;2.50;2.17;;;1.30;83.90;0.50;100557.00;;;;5116250;28;20226;-81
2022/01/13 08:08:27;;;;;;;4.73;2.80;;;1.30;83.80;0.50;100556.00;;;;5116218;28;20202;-77
2022/01/13 08:10:54;;;;;;;1.97;1.87;;;1.30;83.50;0.40;100571.00;;;;5100160;28;20529;-75
2022/01/13 08:13:23;;;;;;;5.80;3.47;;;1.30;83.30;0.40;100570.00;;;;5126873;28;20229;-76
2022/01/13 08:15:52;;;;;;;2.77;2.57;;;1.40;83.40;0.40;100574.00;;;;5129814;28;20224;-76
2022/01/13 08:21:06;;;;;;;1.33;1.23;;;1.30;83.00;0.40;100552.00;;;;5116871;28;20255;-76
2022/01/13 08:23:33;;;;;;;2.63;2.43;;;1.30;82.60;0.30;100564.00;;;;5116273;28;20308;-76
2022/01/13 08:25:59;;;;;;;3.27;2.37;;;1.30;82.30;0.30;100561.00;;;;5119397;28;20636;-76
2022/01/13 08:28:28;;;;;;;4.30;3.43;;;1.30;82.60;0.40;100557.00;;;;5125929;28;20194;-75
2022/01/13 08:30:55;;;;;;;5.23;2.87;;;1.30;82.80;0.50;100556.00;;;;5127179;28;20226;-74
2022/01/13 08:33:23;;;;;;;6.20;2.57;;;1.40;82.00;0.40;100556.00;;;;5117611;28;20198;-76
2022/01/13 08:35:51;;;;;;;2.97;2.73;;;1.40;81.90;0.30;100568.00;;;;5116530;28;20223;-76
2022/01/13 08:38:19;;;;;;;3.83;2.40;;;1.40;82.00;0.40;100567.00;;;;5115893;28;20314;-76
2022/01/13 08:40:47;;;;;;;2.27;2.10;;;1.40;82.10;0.50;100569.00;;;;5115769;28;20254;-76
2022/01/13 08:43:14;;;;;;;2.83;2.50;;;1.50;82.60;0.70;100564.00;;;;5097569;28;20627;-76
2022/01/13 08:45:42;;;;;;;2.37;2.17;;;1.50;82.30;0.70;100561.00;;;;5115618;28;20177;-76
2022/01/13 08:48:10;;;;;;;3.13;2.83;;;1.60;82.00;0.80;100565.00;;;;5115755;28;20234;-76
2022/01/13 08:50:40;;;;;;;2.70;2.50;;;1.60;82.10;0.90;100573.00;;;;5115475;28;20225;-77
2022/01/13 08:53:07;;;;;;;2.97;2.57;;;1.70;81.80;0.90;100572.00;;;;5115685;28;20332;-77
2022/01/13 08:55:34;;;;;;;1.50;1.50;;;1.80;81.40;0.80;100576.00;;;;5097752;28;20645;-74
2022/01/13 08:58:01;;;;;;;4.13;3.30;;;1.80;81.00;0.80;100567.00;;;;5115242;28;20249;-77
2022/01/13 09:00:27;;;;;;;2.87;2.67;;;1.70;81.30;1.00;100566.00;;;;5115267;28;20229;-75
2022/01/13 09:02:56;;;;;;;1.60;1.50;;;1.90;81.20;1.10;100579.00;;;;5114633;28;20623;-74
2022/01/13 09:05:22;;;;;;;2.33;2.13;;;1.90;80.40;1.10;100559.00;;;;5115381;28;20227;-74
2022/01/13 09:07:49;;;;;;;3.10;1.63;;;2.00;80.90;0.90;100564.00;;;;5115207;28;20310;-73
2022/01/13 09:10:18;;;;;;;1.97;1.87;;;1.90;81.10;1.00;100555.00;;;;5097475;28;20215;-73
2022/01/13 09:12:45;;;;;;;1.80;1.70;;;1.90;81.60;1.00;100556.00;;;;5115293;28;20275;-74
2022/01/13 09:15:17;;;;;;;1.80;1.70;;;1.90;81.70;1.10;100549.00;;;;5115084;28;20634;-73
2022/01/13 09:17:51;;;;;;;10.90;1.97;;;2.00;80.70;1.10;100556.00;;;;5115180;28;20207;-77
2022/01/13 09:20:19;;;;;;;2.40;0.90;;;2.00;81.30;1.20;100532.00;;;;5115100;28;20221;-74
2022/01/13 09:22:48;;;;;;;1.47;1.47;;;2.10;81.30;1.30;100545.00;;;;5113983;28;20232;-73
2022/01/13 09:25:15;;;;;;;1.77;1.67;;;2.20;81.30;1.40;100549.00;;;;5115020;28;20202;-75
2022/01/13 09:27:42;;;;;;;3.23;2.40;;;2.20;81.50;1.50;100552.00;;;;5097052;28;20246;-73
2022/01/13 09:30:14;;;;;;;1.63;1.53;;;2.30;81.40;1.60;100546.00;;;;5114929;28;20216;-76
2022/01/13 09:32:41;;;;;;;2.10;1.90;;;2.40;80.60;1.50;100547.00;;;;5114832;28;20291;-76
2022/01/13 09:35:09;;;;;;;0.80;0.80;;;2.40;81.00;1.60;100516.00;;;;5114817;28;20216;-76
2022/01/13 09:37:40;;;;;;;0.90;0.90;;;2.50;80.80;1.60;100529.00;;;;5114914;28;20216;-75
2022/01/13 09:40:09;;;;;;;1.07;1.07;;;2.50;81.10;1.70;100537.00;;;;5096878;28;20590;-74
2022/01/13 09:42:42;;;;;;;1.97;1.87;;;2.60;80.60;1.80;100544.00;;;;5114754;28;20201;-78
2022/01/13 09:45:12;;;;;;;3.50;1.33;;;2.60;80.10;1.90;100547.00;;;;5114824;28;20203;-78
2022/01/13 09:47:40;;;;;;;1.63;1.53;;;2.70;80.00;1.90;100542.00;;;;5114611;28;20257;-80
2022/01/13 09:50:11;;;;;;;1.40;1.40;;;2.70;79.20;1.90;100537.00;;;;5114675;28;20297;-77
2022/01/13 09:52:38;;;;;;;1.83;1.73;;;2.70;79.00;1.80;100548.00;;;;5096822;28;20327;-77
2022/01/13 09:55:10;;;;;;;1.67;1.57;;;2.70;78.60;1.80;100552.00;;;;5114539;28;20302;-79
2022/01/13 09:57:43;;;;;;;1.67;1.57;;;2.70;78.10;1.90;100560.00;;;;5114708;28;20602;-75
2022/01/13 10:00:13;;;;;;;1.70;1.60;;;2.70;78.10;1.90;100563.00;;;;5114454;28;20307;-75
2022/01/13 10:02:40;;;;;;;1.30;1.23;;;2.70;77.50;1.90;100544.00;;;;5114568;28;20261;-76
2022/01/13 10:05:07;;;;;;;2.53;2.13;;;2.70;77.00;1.90;100547.00;;;;5114525;28;20290;-76
2022/01/13 10:07:37;;;;;;;1.03;1.03;;;2.70;77.50;2.00;100549.00;;;;5114267;28;20218;-79
2022/01/13 10:10:08;;;;;;;1.37;1.37;;;2.80;77.10;1.90;100552.00;;;;5114450;28;20627;-77
2022/01/13 10:12:37;;;;;;;1.90;1.37;;;2.80;76.40;2.00;100514.00;;;;5114305;28;20189;-75
2022/01/13 10:17:55;;;;;;;3.37;3.13;;;2.90;76.30;2.00;100532.00;;;;5117964;28;20179;-76
2022/01/13 10:20:23;;;;;;;1.20;1.20;;;2.90;75.70;1.90;100524.00;;;;5117818;28;20308;-75
2022/01/13 10:22:50;;;;;;;1.60;1.50;;;2.90;75.60;1.90;100525.00;;;;5100247;28;20200;-76
2022/01/13 10:25:31;;;;;;;1.53;1.43;;;2.80;75.80;2.00;100535.00;;;;5117820;28;20289;-75
2022/01/13 10:28:14;;;;;;;1.10;1.10;;;2.90;76.20;2.10;100529.00;;;;5100030;28;20212;-74
2022/01/13 10:30:44;;;;;;;1.50;1.50;;;2.90;75.50;2.00;100523.00;;;;5117890;28;20189;-74
2022/01/13 10:33:17;;;;;;;1.60;1.50;;;2.90;74.70;2.10;100542.00;;;;5117726;28;20579;-75
2022/01/13 10:35:44;;;;;;;1.63;1.53;;;3.00;75.40;2.20;100537.00;;;;5117606;28;20201;-73
2022/01/13 10:38:13;;;;;;;1.67;1.60;;;3.10;74.50;2.20;100542.00;;;;5117478;28;20228;-72
2022/01/13 10:40:41;;;;;;;1.80;1.70;;;3.10;73.90;2.20;100528.00;;;;5117628;28;20317;-76
2022/01/13 10:43:11;;;;;;;1.23;1.23;;;3.20;73.50;2.40;100534.00;;;;5117617;28;20305;-75
2022/01/13 10:45:44;;;;;;;1.83;1.37;;;3.30;73.30;2.60;100532.00;;;;5117980;28;20229;-78
2022/01/13 10:48:13;;;;;;;1.60;1.50;;;3.30;72.10;2.40;100535.00;;;;5118470;28;20626;-75
2022/01/13 10:50:44;;;;;;;1.23;1.23;;;3.40;72.20;2.50;100536.00;;;;5119012;28;20250;-77
2022/01/13 10:53:14;;;;;;;2.17;2.07;;;3.40;72.50;2.60;100532.00;;;;5120103;28;20213;-73
2022/01/13 10:55:45;;;;;;;1.10;1.10;;;3.50;72.40;2.60;100529.00;;;;5117441;28;20207;-75
2022/01/13 10:58:18;;;;;;;1.60;1.50;;;3.50;72.30;2.80;100522.00;;;;5117909;28;20197;-76
2022/01/13 11:00:46;;;;;;;1.17;1.17;;;3.60;70.60;2.60;100531.00;;;;5117251;28;20216;-76
2022/01/13 11:03:18;;;;;;;2.10;2.00;;;3.60;70.90;2.70;100536.00;;;;5117158;28;20546;-76
2022/01/13 11:05:48;;;;;;;1.70;1.60;;;3.60;70.90;2.80;100521.00;;;;5117275;28;20205;-76
2022/01/13 11:08:23;;;;;;;1.20;1.20;;;3.70;70.50;2.80;100524.00;;;;5099199;28;20288;-75
2022/01/13 11:11:00;;;;;;;5.77;2.67;;;3.70;70.70;3.00;100532.00;;;;5117126;28;20702;-75
2022/01/13 11:13:30;;;;;;;3.37;3.07;;;3.80;70.50;3.00;100523.00;;;;5117045;28;20330;-74
2022/01/13 11:15:58;;;;;;;5.27;1.73;;;3.90;69.60;3.00;100513.00;;;;5116845;28;20221;-73
2022/01/13 11:18:30;;;;;;;1.67;1.57;;;3.90;69.30;3.30;100532.00;;;;5116992;28;20212;-73
2022/01/13 11:20:59;;;;;;;1.87;1.77;;;4.10;68.90;3.30;100537.00;;;;5116886;28;20308;-76